Terminal Aerodrome Forecast
Issued by NWS

Home | Current Version | Previous Version | Text Only | Print | Product List | Glossary On
Versions: 1 2 3 4 5 6 7 8 9 10 11 12 13 14 15
000
FTUS42 TJSJ 221738
TAFJBQ
TAF
TJBQ 221738Z 2218/2318 16010G20KT P6SM VCSH SCT020 SCT050 OVC250
     FM230000 14010KT P6SM VCSH SCT020 SCT050 BKN250
     FM231200 19006KT P6SM VCSH SCT050 OVC100
      AMD NOT SKED=

USA.gov is the U.S. government's official web portal to all federal, state and local government web resources and services.